createdAt,value
2018-05-18T00:01:03.670Z,11.38
2018-05-18T00:02:09.757Z,10.70
2018-05-18T00:03:16.047Z,10.80
2018-05-18T00:04:22.788Z,11.40
2018-05-18T00:05:29.278Z,11.60
2018-05-18T00:06:35.610Z,11.60
2018-05-18T00:07:41.998Z,11.80
2018-05-18T00:08:48.333Z,12.30
2018-05-18T00:09:54.665Z,10.40
2018-05-18T00:11:00.927Z,11.32
2018-05-18T00:12:07.271Z,12.43
2018-05-18T00:13:13.548Z,11.32
2018-05-18T00:14:20.487Z,11.25
2018-05-18T00:15:26.802Z,11.85
2018-05-18T00:16:33.136Z,11.02
2018-05-18T00:17:39.444Z,11.10
2018-05-18T00:18:45.725Z,11.60
2018-05-18T00:19:52.038Z,11.63
2018-05-18T00:20:58.361Z,12.55
2018-05-18T00:22:04.695Z,13.35
2018-05-18T00:23:11.113Z,12.50
2018-05-18T00:24:17.493Z,11.52
2018-05-18T00:25:23.825Z,10.75
2018-05-18T00:26:30.129Z,10.80
2018-05-18T00:27:36.549Z,12.70
2018-05-18T00:28:42.853Z,11.50
2018-05-18T00:29:49.225Z,10.90
2018-05-18T00:30:55.579Z,11.38
2018-05-18T00:32:02.509Z,12.40
2018-05-18T00:33:08.921Z,12.52
2018-05-18T00:34:15.042Z,12.43
2018-05-18T00:35:21.336Z,12.10
2018-05-18T00:36:27.638Z,11.25
2018-05-18T00:37:34.893Z,11.52
2018-05-18T00:38:41.202Z,11.35
2018-05-18T00:39:47.638Z,12.70
2018-05-18T00:40:55.353Z,11.73
2018-05-18T00:42:01.601Z,11.63
2018-05-18T00:43:07.853Z,12.60
2018-05-18T00:44:14.159Z,12.15
2018-05-18T00:45:20.521Z,11.38
2018-05-18T00:46:31.765Z,11.95
2018-05-18T00:47:38.052Z,12.02
2018-05-18T00:48:44.440Z,13.13
2018-05-18T00:49:50.752Z,12.30
2018-05-18T00:50:57.065Z,12.52
2018-05-18T00:52:03.404Z,11.70
2018-05-18T00:53:14.669Z,11.02
2018-05-18T00:54:21.045Z,12.30
2018-05-18T00:55:38.519Z,12.82
2018-05-18T00:56:44.897Z,12.37
2018-05-18T00:57:51.220Z,11.27
2018-05-18T00:58:57.509Z,10.55
2018-05-18T01:00:03.471Z,11.68
2018-05-18T01:01:09.516Z,12.13
2018-05-18T01:02:22.337Z,9.90
2018-05-18T01:03:28.730Z,10.90
2018-05-18T01:04:38.752Z,11.60
2018-05-18T01:05:44.808Z,11.77
2018-05-18T01:06:51.361Z,11.48
2018-05-18T01:07:58.233Z,10.73
2018-05-18T01:09:03.365Z,11.25
2018-05-18T01:10:09.474Z,9.70
2018-05-18T01:11:15.753Z,10.35
2018-05-18T01:12:22.086Z,10.55
2018-05-18T01:13:29.209Z,10.10
2018-05-18T01:14:35.506Z,10.15
2018-05-18T01:15:41.814Z,10.63
2018-05-18T01:16:48.126Z,10.55
2018-05-18T01:17:54.463Z,10.65
2018-05-18T01:19:00.755Z,10.43
2018-05-18T01:20:07.687Z,11.35
2018-05-18T01:21:14.001Z,9.70
2018-05-18T01:22:20.407Z,10.20
2018-05-18T01:23:26.612Z,9.57
2018-05-18T01:24:32.928Z,9.65
2018-05-18T01:25:39.401Z,10.40
2018-05-18T01:26:45.381Z,10.63
2018-05-18T01:27:52.335Z,9.27
2018-05-18T01:28:58.574Z,10.23
2018-05-18T01:30:04.190Z,9.27
2018-05-18T01:31:10.181Z,10.20
2018-05-18T01:32:17.107Z,9.55
2018-05-18T01:33:23.453Z,10.13
2018-05-18T01:34:29.759Z,9.95
2018-05-18T01:35:35.870Z,10.88
2018-05-18T01:36:42.149Z,9.43
2018-05-18T01:37:48.581Z,9.98
2018-05-18T01:38:54.913Z,10.10
2018-05-18T01:40:01.214Z,9.85
2018-05-18T01:41:07.590Z,9.98
2018-05-18T01:42:13.900Z,8.93
2018-05-18T01:43:20.245Z,11.50
2018-05-18T01:44:26.544Z,10.10
2018-05-18T01:45:32.657Z,9.38
2018-05-18T01:46:38.888Z,9.52
2018-05-18T01:47:45.179Z,9.80
2018-05-18T01:48:51.478Z,9.82
2018-05-18T01:49:57.828Z,9.32
2018-05-18T01:51:04.133Z,9.25
2018-05-18T01:52:10.727Z,9.20
2018-05-18T01:53:17.049Z,9.10
2018-05-18T01:54:23.351Z,8.75
2018-05-18T01:55:30.465Z,9.32
2018-05-18T01:56:36.899Z,9.20
2018-05-18T01:57:43.227Z,10.57
2018-05-18T01:58:50.954Z,10.43
2018-05-18T01:59:57.162Z,8.68
2018-05-18T02:01:04.321Z,9.95
2018-05-18T02:02:14.708Z,9.02
2018-05-18T02:03:21.021Z,9.32
2018-05-18T02:04:27.321Z,9.00
2018-05-18T02:05:33.642Z,9.70
2018-05-18T02:06:39.915Z,9.70
2018-05-18T02:07:45.892Z,9.40
2018-05-18T02:08:52.331Z,9.55
2018-05-18T02:09:58.652Z,9.75
2018-05-18T02:11:04.886Z,7.85
2018-05-18T02:12:11.169Z,8.88
2018-05-18T02:13:17.513Z,9.13
2018-05-18T02:14:24.319Z,7.55
2018-05-18T02:15:30.424Z,8.85
2018-05-18T02:16:36.728Z,9.50
2018-05-18T02:17:43.073Z,8.38
2018-05-18T02:18:49.377Z,8.93
2018-05-18T02:19:55.629Z,8.52
2018-05-18T02:21:01.913Z,8.35
2018-05-18T02:22:08.283Z,8.10
2018-05-18T02:23:14.634Z,8.45
2018-05-18T02:24:20.918Z,8.80
2018-05-18T02:25:30.462Z,8.77
2018-05-18T02:26:37.064Z,8.73
2018-05-18T02:27:44.023Z,8.00
2018-05-18T02:28:51.323Z,8.73
2018-05-18T02:29:59.690Z,8.85
2018-05-18T02:31:06.942Z,8.10
2018-05-18T02:32:14.035Z,9.38
2018-05-18T02:33:21.779Z,8.20
2018-05-18T02:34:28.903Z,8.93
2018-05-18T02:35:36.137Z,7.65
2018-05-18T02:36:43.150Z,8.23
2018-05-18T02:37:50.314Z,9.15
2018-05-18T02:38:58.362Z,10.18
2018-05-18T02:40:06.203Z,8.70
2018-05-18T02:41:12.769Z,7.55
2018-05-18T02:42:20.491Z,7.65
2018-05-18T02:43:27.796Z,8.57
2018-05-18T02:44:35.738Z,7.60
2018-05-18T02:45:42.579Z,8.75
2018-05-18T02:46:49.509Z,7.05
2018-05-18T02:47:56.264Z,7.40
2018-05-18T02:49:03.561Z,7.40
2018-05-18T02:50:11.159Z,9.25
2018-05-18T02:51:18.781Z,8.35
2018-05-18T02:52:26.018Z,7.72
2018-05-18T02:53:33.116Z,8.40
2018-05-18T02:54:40.581Z,7.90
2018-05-18T02:55:47.869Z,7.45
2018-05-18T02:56:55.014Z,7.68
2018-05-18T02:58:01.895Z,7.05
2018-05-18T02:59:09.097Z,7.57
2018-05-18T03:00:16.606Z,7.45
2018-05-18T03:01:25.066Z,7.75
2018-05-18T03:02:32.372Z,7.22
2018-05-18T03:03:39.730Z,7.35
2018-05-18T03:04:48.589Z,7.95
2018-05-18T03:05:54.803Z,7.78
2018-05-18T03:07:02.031Z,7.47
2018-05-18T03:08:09.326Z,7.03
2018-05-18T03:09:16.811Z,7.07
2018-05-18T03:10:23.860Z,8.32
2018-05-18T03:11:32.333Z,6.80
2018-05-18T03:12:39.790Z,7.35
2018-05-18T03:13:47.599Z,6.80
2018-05-18T03:14:54.967Z,7.30
2018-05-18T03:16:02.243Z,7.40
2018-05-18T03:17:09.163Z,7.20
2018-05-18T03:18:16.433Z,7.95
2018-05-18T03:19:22.986Z,7.43
2018-05-18T03:20:29.745Z,6.78
2018-05-18T03:21:37.010Z,7.10
2018-05-18T03:22:43.627Z,8.02
2018-05-18T03:23:50.646Z,6.95
2018-05-18T03:24:57.499Z,7.82
2018-05-18T03:26:04.733Z,6.65
2018-05-18T03:27:11.290Z,8.48
2018-05-18T03:28:18.452Z,8.25
2018-05-18T03:29:29.016Z,7.18
2018-05-18T03:30:39.292Z,7.90
2018-05-18T03:31:46.055Z,6.97
2018-05-18T03:32:53.019Z,7.78
2018-05-18T03:34:00.409Z,7.10
2018-05-18T03:35:07.064Z,7.40
2018-05-18T03:36:13.479Z,6.95
2018-05-18T03:37:19.777Z,6.95
2018-05-18T03:38:26.984Z,7.55
2018-05-18T03:39:33.396Z,6.20
2018-05-18T03:40:39.620Z,8.00
2018-05-18T03:41:46.012Z,7.40
2018-05-18T03:42:52.328Z,7.93
2018-05-18T03:43:58.648Z,7.53
2018-05-18T03:45:04.256Z,7.95
2018-05-18T03:46:10.530Z,6.65
2018-05-18T03:47:16.841Z,7.00
2018-05-18T03:48:23.177Z,6.40
2018-05-18T03:49:29.522Z,6.87
2018-05-18T03:50:35.922Z,7.45
2018-05-18T03:51:42.204Z,6.87
2018-05-18T03:52:52.146Z,7.35
2018-05-18T03:53:59.049Z,6.80
2018-05-18T03:55:05.389Z,6.85
2018-05-18T03:56:11.684Z,7.47
2018-05-18T03:57:17.964Z,7.25
2018-05-18T03:58:24.449Z,7.37
2018-05-18T03:59:30.703Z,7.20
2018-05-18T04:00:40.288Z,7.68
2018-05-18T04:01:58.255Z,10.70
2018-05-18T04:03:22.278Z,6.65
2018-05-18T04:04:39.638Z,6.70
2018-05-18T04:06:08.933Z,6.87
2018-05-18T04:07:26.910Z,6.10
2018-05-18T04:08:53.867Z,7.25
2018-05-18T04:10:11.660Z,7.28
2018-05-18T04:11:19.367Z,6.97
2018-05-18T04:12:25.671Z,7.00
2018-05-18T04:13:31.945Z,7.53
2018-05-18T04:14:41.702Z,7.90
2018-05-18T04:15:47.974Z,7.85
2018-05-18T04:16:54.203Z,8.15
2018-05-18T04:18:00.449Z,7.30
2018-05-18T04:19:06.682Z,7.25
2018-05-18T04:20:12.922Z,7.05
2018-05-18T04:21:19.733Z,6.60
2018-05-18T04:22:26.055Z,7.05
2018-05-18T04:23:32.108Z,7.75
2018-05-18T04:24:38.513Z,7.75
2018-05-18T04:25:44.779Z,6.43
2018-05-18T04:26:51.119Z,6.55
2018-05-18T04:27:57.385Z,6.43
2018-05-18T04:29:03.636Z,7.82
2018-05-18T04:30:09.993Z,6.78
2018-05-18T04:31:16.453Z,6.95
2018-05-18T04:32:22.401Z,6.30
2018-05-18T04:33:28.634Z,6.85
2018-05-18T04:34:35.773Z,5.90
2018-05-18T04:35:42.796Z,6.35
2018-05-18T04:36:49.160Z,6.28
2018-05-18T04:37:55.085Z,6.25
2018-05-18T04:39:01.329Z,7.18
2018-05-18T04:40:07.984Z,6.90
2018-05-18T04:41:14.394Z,7.05
2018-05-18T04:42:21.310Z,6.25
2018-05-18T04:43:27.629Z,7.00
2018-05-18T04:44:33.950Z,6.57
2018-05-18T04:45:40.206Z,6.47
2018-05-18T04:46:46.451Z,6.30
2018-05-18T04:47:52.737Z,7.15
2018-05-18T04:48:59.054Z,6.68
2018-05-18T04:50:05.034Z,6.22
2018-05-18T04:51:12.320Z,6.57
2018-05-18T04:52:18.635Z,7.80
2018-05-18T04:53:24.941Z,6.95
2018-05-18T04:54:31.238Z,6.60
2018-05-18T04:55:38.231Z,7.97
2018-05-18T04:56:44.488Z,7.32
2018-05-18T04:57:51.138Z,7.75
2018-05-18T04:58:57.763Z,6.82
2018-05-18T05:00:04.109Z,6.68
2018-05-18T05:01:10.326Z,6.30
2018-05-18T05:02:16.669Z,7.22
2018-05-18T05:03:22.978Z,6.50
2018-05-18T05:04:29.369Z,7.37
2018-05-18T05:05:35.734Z,6.57
2018-05-18T05:06:42.029Z,7.45
2018-05-18T05:07:48.306Z,7.57
2018-05-18T05:08:54.547Z,6.53
2018-05-18T05:10:01.446Z,6.22
2018-05-18T05:11:07.794Z,7.45
2018-05-18T05:12:14.653Z,6.15
2018-05-18T05:13:20.893Z,7.95
2018-05-18T05:14:28.251Z,7.10
2018-05-18T05:15:34.554Z,7.00
2018-05-18T05:16:40.845Z,7.15
2018-05-18T05:17:47.146Z,6.72
2018-05-18T05:18:53.490Z,7.40
2018-05-18T05:19:59.781Z,8.00
2018-05-18T05:21:06.137Z,7.78
2018-05-18T05:22:12.457Z,7.00
2018-05-18T05:23:21.290Z,6.87
2018-05-18T05:24:28.981Z,6.93
2018-05-18T05:25:37.532Z,6.50
2018-05-18T05:26:44.121Z,6.75
2018-05-18T05:27:50.459Z,7.15
2018-05-18T05:28:56.697Z,6.93
2018-05-18T05:30:03.477Z,7.20
2018-05-18T05:31:09.721Z,7.47
2018-05-18T05:32:16.439Z,7.70
2018-05-18T05:33:22.772Z,8.05
2018-05-18T05:34:29.145Z,8.05
2018-05-18T05:35:35.468Z,7.22
2018-05-18T05:36:41.936Z,8.23
2018-05-18T05:37:48.373Z,7.90
2018-05-18T05:38:54.661Z,8.32
2018-05-18T05:40:01.114Z,7.60
2018-05-18T05:41:07.730Z,7.90
2018-05-18T05:42:19.952Z,7.60
2018-05-18T05:43:30.169Z,7.43
2018-05-18T05:44:36.549Z,7.68
2018-05-18T05:45:42.848Z,7.65
2018-05-18T05:46:49.117Z,7.95
2018-05-18T05:47:55.563Z,7.25
2018-05-18T05:49:01.801Z,8.05
2018-05-18T05:50:08.101Z,8.18
2018-05-18T05:51:14.580Z,8.70
2018-05-18T05:52:21.476Z,8.77
2018-05-18T05:53:27.765Z,8.85
2018-05-18T05:54:33.984Z,10.88
2018-05-18T05:55:40.311Z,8.57
2018-05-18T05:56:50.512Z,9.10
2018-05-18T05:57:57.076Z,9.00
2018-05-18T05:59:03.533Z,8.35
2018-05-18T06:00:09.961Z,8.07
2018-05-18T06:01:16.886Z,8.75
2018-05-18T06:02:23.184Z,9.02
2018-05-18T06:03:29.492Z,8.98
2018-05-18T06:04:35.838Z,8.75
2018-05-18T06:05:42.120Z,8.90
2018-05-18T06:06:49.029Z,10.68
2018-05-18T06:07:55.471Z,9.18
2018-05-18T06:09:03.454Z,8.05
2018-05-18T06:10:10.167Z,9.02
2018-05-18T06:11:18.121Z,9.85
2018-05-18T06:12:24.524Z,8.82
2018-05-18T06:13:31.002Z,8.02
2018-05-18T06:14:37.170Z,8.15
2018-05-18T06:15:43.470Z,7.70
2018-05-18T06:16:49.770Z,8.43
2018-05-18T06:17:56.070Z,7.93
2018-05-18T06:19:02.373Z,8.48
2018-05-18T06:20:08.653Z,7.93
2018-05-18T06:21:14.670Z,7.55
2018-05-18T06:22:20.998Z,8.30
2018-05-18T06:23:27.289Z,8.63
2018-05-18T06:24:33.599Z,8.95
2018-05-18T06:25:39.908Z,8.07
2018-05-18T06:26:46.252Z,7.15
2018-05-18T06:27:52.565Z,8.52
2018-05-18T06:28:59.804Z,8.23
2018-05-18T06:30:05.511Z,9.43
2018-05-18T06:31:11.812Z,7.45
2018-05-18T06:32:18.098Z,8.38
2018-05-18T06:33:24.403Z,8.93
2018-05-18T06:34:30.753Z,8.18
2018-05-18T06:35:36.946Z,8.40
2018-05-18T06:36:43.496Z,8.30
2018-05-18T06:37:49.826Z,9.30
2018-05-18T06:38:56.064Z,9.15
2018-05-18T06:40:02.384Z,9.30
2018-05-18T06:41:08.793Z,8.82
2018-05-18T06:42:15.236Z,8.95
2018-05-18T06:43:21.526Z,8.70
2018-05-18T06:44:28.371Z,7.72
2018-05-18T06:45:34.933Z,9.27
2018-05-18T06:46:41.267Z,8.82
2018-05-18T06:47:47.783Z,8.93
2018-05-18T06:48:54.015Z,8.35
2018-05-18T06:50:00.331Z,9.75
2018-05-18T06:51:06.630Z,10.38
2018-05-18T06:52:12.952Z,8.80
2018-05-18T06:53:19.249Z,9.95
2018-05-18T06:54:25.448Z,9.82
2018-05-18T06:55:31.828Z,10.38
2018-05-18T06:56:38.119Z,9.43
2018-05-18T06:57:44.424Z,9.55
2018-05-18T06:58:50.725Z,9.00
2018-05-18T06:59:58.084Z,9.82
2018-05-18T07:01:04.747Z,9.48
2018-05-18T07:02:11.105Z,11.40
2018-05-18T07:03:17.323Z,9.93
2018-05-18T07:04:23.639Z,10.20
2018-05-18T07:05:29.894Z,11.30
2018-05-18T07:06:36.958Z,10.30
2018-05-18T07:07:43.273Z,10.38
2018-05-18T07:08:49.232Z,9.40
2018-05-18T07:09:55.561Z,9.65
2018-05-18T07:11:01.888Z,10.38
2018-05-18T07:12:08.222Z,10.40
2018-05-18T07:13:14.639Z,10.35
2018-05-18T07:14:20.917Z,11.75
2018-05-18T07:15:27.327Z,10.10
2018-05-18T07:16:33.716Z,11.50
2018-05-18T07:17:40.186Z,10.90
2018-05-18T07:18:46.167Z,10.43
2018-05-18T07:19:52.479Z,10.75
2018-05-18T07:20:58.863Z,10.90
2018-05-18T07:22:05.119Z,10.68
2018-05-18T07:23:11.401Z,10.60
2018-05-18T07:24:17.735Z,11.02
2018-05-18T07:25:24.017Z,8.50
2018-05-18T07:26:30.236Z,9.30
2018-05-18T07:27:36.585Z,10.13
2018-05-18T07:28:42.890Z,9.70
2018-05-18T07:29:49.183Z,10.50
2018-05-18T07:30:56.014Z,9.18
2018-05-18T07:32:02.352Z,9.98
2018-05-18T07:33:08.662Z,9.02
2018-05-18T07:34:14.931Z,9.57
2018-05-18T07:35:20.905Z,9.40
2018-05-18T07:36:28.221Z,8.50
2018-05-18T07:37:35.194Z,8.93
2018-05-18T07:38:41.525Z,10.52
2018-05-18T07:39:48.425Z,9.30
2018-05-18T07:40:56.664Z,8.05
2018-05-18T07:42:06.937Z,9.30
2018-05-18T07:43:14.378Z,8.77
2018-05-18T07:44:20.688Z,8.50
2018-05-18T07:45:27.060Z,9.52
2018-05-18T07:46:33.380Z,8.98
2018-05-18T07:47:39.722Z,9.50
2018-05-18T07:48:45.965Z,9.27
2018-05-18T07:49:52.215Z,9.32
2018-05-18T07:50:58.526Z,8.52
2018-05-18T07:52:05.690Z,8.70
2018-05-18T07:53:12.561Z,8.90
2018-05-18T07:54:18.881Z,8.13
2018-05-18T07:55:25.193Z,8.05
2018-05-18T07:56:31.494Z,8.77
2018-05-18T07:57:37.754Z,10.00
2018-05-18T07:58:44.080Z,7.75
2018-05-18T07:59:50.341Z,9.18
2018-05-18T08:00:56.699Z,8.50
2018-05-18T08:02:02.977Z,10.23
2018-05-18T08:03:08.977Z,9.27
2018-05-18T08:04:15.328Z,9.90
2018-05-18T08:05:21.548Z,10.75
2018-05-18T08:06:27.822Z,8.35
2018-05-18T08:07:34.624Z,8.75
2018-05-18T08:08:40.938Z,9.15
2018-05-18T08:09:47.238Z,8.50
2018-05-18T08:10:53.461Z,9.30
2018-05-18T08:12:00.503Z,9.15
2018-05-18T08:13:07.181Z,8.50
2018-05-18T08:14:13.451Z,9.25
2018-05-18T08:15:19.730Z,8.90
2018-05-18T08:16:27.002Z,9.55
2018-05-18T08:17:33.294Z,8.80
2018-05-18T08:18:39.605Z,10.05
2018-05-18T08:19:45.894Z,8.70
2018-05-18T08:20:52.203Z,8.98
2018-05-18T08:21:58.876Z,9.43
2018-05-18T08:23:05.176Z,9.23
2018-05-18T08:24:11.458Z,9.98
2018-05-18T08:25:17.785Z,9.00
2018-05-18T08:26:24.101Z,8.55
2018-05-18T08:27:30.432Z,10.05
2018-05-18T08:28:48.428Z,10.00
2018-05-18T08:29:54.462Z,9.07
2018-05-18T08:31:11.704Z,8.25
2018-05-18T08:32:17.950Z,7.90
2018-05-18T08:33:24.270Z,8.30
2018-05-18T08:34:30.658Z,7.70
2018-05-18T08:35:37.037Z,8.77
2018-05-18T08:36:43.336Z,8.70
2018-05-18T08:37:49.625Z,8.32
2018-05-18T08:38:55.922Z,8.50
2018-05-18T08:40:02.233Z,7.50
2018-05-18T08:41:08.544Z,7.72
2018-05-18T08:42:14.903Z,8.00
2018-05-18T08:43:21.298Z,7.37
2018-05-18T08:44:27.617Z,8.50
2018-05-18T08:45:34.244Z,7.20
2018-05-18T08:46:41.234Z,7.87
2018-05-18T08:47:47.556Z,8.25
2018-05-18T08:48:53.908Z,8.02
2018-05-18T08:50:00.107Z,7.87
2018-05-18T08:51:06.387Z,7.00
2018-05-18T08:52:12.702Z,7.68
2018-05-18T08:53:19.028Z,7.70
2018-05-18T08:54:26.475Z,7.43
2018-05-18T08:55:34.209Z,7.05
2018-05-18T08:56:40.647Z,7.90
2018-05-18T08:57:47.257Z,7.12
2018-05-18T08:58:54.489Z,7.95
2018-05-18T09:00:01.200Z,8.02
2018-05-18T09:01:07.645Z,8.05
2018-05-18T09:02:14.833Z,7.68
2018-05-18T09:03:22.493Z,7.15
2018-05-18T09:04:28.821Z,8.40
2018-05-18T09:05:35.533Z,8.38
2018-05-18T09:06:45.491Z,7.95
2018-05-18T09:07:53.068Z,8.13
2018-05-18T09:08:59.721Z,7.35
2018-05-18T09:10:06.195Z,8.18
2018-05-18T09:11:12.481Z,9.32
2018-05-18T09:12:18.811Z,8.20
2018-05-18T09:13:25.353Z,8.77
2018-05-18T09:14:31.628Z,8.52
2018-05-18T09:15:38.970Z,10.55
2018-05-18T09:16:45.383Z,9.48
2018-05-18T09:17:51.668Z,8.77
2018-05-18T09:18:57.915Z,9.20
2018-05-18T09:20:03.836Z,9.40
2018-05-18T09:21:10.089Z,9.77
2018-05-18T09:22:16.413Z,10.75
2018-05-18T09:23:22.745Z,9.85
2018-05-18T09:24:29.161Z,10.90
2018-05-18T09:25:35.763Z,9.90
2018-05-18T09:26:42.573Z,10.18
2018-05-18T09:27:49.453Z,10.05
2018-05-18T09:28:55.743Z,9.05
2018-05-18T09:30:02.037Z,9.25
2018-05-18T09:31:08.366Z,9.50
2018-05-18T09:32:14.686Z,8.85
2018-05-18T09:33:20.952Z,8.50
2018-05-18T09:34:27.289Z,9.35
2018-05-18T09:35:33.575Z,9.15
2018-05-18T09:36:40.410Z,9.98
2018-05-18T09:37:46.706Z,9.40
2018-05-18T09:38:53.053Z,9.90
2018-05-18T09:40:00.181Z,8.32
2018-05-18T09:41:08.836Z,9.73
2018-05-18T09:42:16.478Z,10.18
2018-05-18T09:43:22.417Z,10.32
2018-05-18T09:44:28.909Z,10.55
2018-05-18T09:45:35.208Z,8.73
2018-05-18T09:46:41.520Z,8.30
2018-05-18T09:47:47.791Z,8.20
2018-05-18T09:48:54.071Z,9.35
2018-05-18T09:50:01.521Z,8.50
2018-05-18T09:51:07.760Z,8.15
2018-05-18T09:52:15.216Z,9.07
2018-05-18T09:53:21.713Z,8.32
2018-05-18T09:54:28.168Z,8.35
2018-05-18T09:55:34.913Z,8.45
2018-05-18T09:56:42.091Z,8.35
2018-05-18T09:57:48.915Z,7.93
2018-05-18T09:58:55.182Z,8.07
2018-05-18T10:00:01.447Z,7.60
2018-05-18T10:01:07.480Z,7.80
2018-05-18T10:02:13.810Z,7.18
2018-05-18T10:03:20.074Z,7.75
2018-05-18T10:04:26.537Z,7.57
2018-05-18T10:05:32.919Z,6.90
2018-05-18T10:06:39.209Z,6.75
2018-05-18T10:07:45.807Z,7.55
2018-05-18T10:08:52.169Z,6.93
2018-05-18T10:09:58.123Z,6.53
2018-05-18T10:11:03.998Z,7.62
2018-05-18T10:12:10.234Z,7.55
2018-05-18T10:13:16.705Z,7.35
2018-05-18T10:14:23.017Z,7.75
2018-05-18T10:15:29.357Z,6.87
2018-05-18T10:16:35.795Z,7.28
2018-05-18T10:17:42.027Z,9.27
2018-05-18T10:18:48.442Z,7.05
2018-05-18T10:19:55.005Z,7.55
2018-05-18T10:21:01.572Z,7.05
2018-05-18T10:22:08.039Z,6.85
2018-05-18T10:23:14.563Z,7.28
2018-05-18T10:24:21.788Z,7.53
2018-05-18T10:25:28.109Z,7.03
2018-05-18T10:26:35.217Z,7.05
2018-05-18T10:27:42.159Z,6.47
2018-05-18T10:28:48.459Z,6.50
2018-05-18T10:29:54.748Z,6.50
2018-05-18T10:31:01.033Z,7.05
2018-05-18T10:32:07.281Z,6.93
2018-05-18T10:33:13.569Z,6.72
2018-05-18T10:34:20.180Z,6.25
2018-05-18T10:35:27.053Z,7.78
2018-05-18T10:36:33.330Z,6.62
2018-05-18T10:37:39.647Z,7.45
2018-05-18T10:38:46.051Z,6.93
2018-05-18T10:39:52.402Z,6.57
2018-05-18T10:40:58.585Z,6.95
2018-05-18T10:42:04.885Z,5.90
2018-05-18T10:43:11.214Z,7.55
2018-05-18T10:44:17.543Z,7.97
2018-05-18T10:45:24.183Z,6.85
2018-05-18T10:46:30.775Z,8.00
2018-05-18T10:47:37.042Z,7.05
2018-05-18T10:48:44.177Z,7.22
2018-05-18T10:49:50.432Z,7.05
2018-05-18T10:50:56.839Z,6.87
2018-05-18T10:52:03.628Z,6.75
2018-05-18T10:53:09.819Z,7.75
2018-05-18T10:54:16.361Z,6.70
2018-05-18T10:55:22.703Z,6.97
2018-05-18T10:56:29.005Z,7.03
2018-05-18T10:57:35.316Z,6.40
2018-05-18T10:58:41.649Z,6.85
2018-05-18T10:59:47.977Z,7.12
2018-05-18T11:00:55.073Z,7.80
2018-05-18T11:02:01.384Z,7.25
2018-05-18T11:03:08.314Z,7.57
2018-05-18T11:04:15.665Z,6.57
2018-05-18T11:05:22.593Z,6.62
2018-05-18T11:06:29.043Z,6.97
2018-05-18T11:07:36.134Z,6.22
2018-05-18T11:08:42.516Z,6.65
2018-05-18T11:09:48.508Z,6.45
2018-05-18T11:10:54.834Z,7.28
2018-05-18T11:12:01.110Z,7.62
2018-05-18T11:13:08.634Z,7.72
2018-05-18T11:14:16.568Z,6.55
2018-05-18T11:15:23.060Z,6.32
2018-05-18T11:16:29.363Z,7.53
2018-05-18T11:17:35.791Z,7.45
2018-05-18T11:18:42.778Z,6.93
2018-05-18T11:19:49.844Z,7.25
2018-05-18T11:20:56.949Z,6.43
2018-05-18T11:22:03.243Z,6.45
2018-05-18T11:23:09.454Z,7.95
2018-05-18T11:24:15.683Z,7.07
2018-05-18T11:25:22.009Z,6.60
2018-05-18T11:26:28.300Z,8.20
2018-05-18T11:27:34.645Z,8.15
2018-05-18T11:28:40.952Z,7.65
2018-05-18T11:29:47.278Z,7.32
2018-05-18T11:30:53.686Z,7.53
2018-05-18T11:31:59.992Z,6.90
2018-05-18T11:33:06.749Z,7.40
2018-05-18T11:34:19.366Z,7.20
2018-05-18T11:35:28.144Z,7.85
2018-05-18T11:36:34.826Z,7.25
2018-05-18T11:37:41.165Z,8.10
2018-05-18T11:38:47.505Z,7.15
2018-05-18T11:39:53.790Z,7.40
2018-05-18T11:41:00.131Z,7.78
2018-05-18T11:42:06.390Z,6.85
2018-05-18T11:43:12.694Z,7.15
2018-05-18T11:44:19.023Z,7.30
2018-05-18T11:45:26.004Z,9.45
2018-05-18T11:46:32.331Z,7.03
2018-05-18T11:47:38.416Z,8.70
2018-05-18T11:48:44.788Z,7.05
2018-05-18T11:49:51.073Z,7.90
2018-05-18T11:50:57.959Z,7.37
2018-05-18T11:52:04.673Z,8.52
2018-05-18T11:53:10.972Z,8.40
2018-05-18T11:54:17.261Z,7.50
2018-05-18T11:55:23.684Z,7.55
2018-05-18T11:56:30.553Z,8.30
2018-05-18T11:57:36.960Z,8.63
2018-05-18T11:58:43.221Z,7.87
2018-05-18T11:59:49.569Z,8.48
2018-05-18T12:00:55.866Z,6.87
2018-05-18T12:02:02.177Z,7.78
2018-05-18T12:03:08.494Z,8.05
2018-05-18T12:04:14.830Z,8.00
2018-05-18T12:05:21.126Z,8.20
2018-05-18T12:06:27.657Z,6.45
2018-05-18T12:07:33.952Z,8.07
2018-05-18T12:08:40.259Z,8.50
2018-05-18T12:09:46.771Z,7.50
2018-05-18T12:10:53.105Z,7.40
2018-05-18T12:11:59.376Z,6.90
2018-05-18T12:13:05.716Z,8.07
2018-05-18T12:14:12.106Z,7.43
2018-05-18T12:15:18.619Z,7.35
2018-05-18T12:16:24.845Z,8.40
2018-05-18T12:17:31.198Z,8.93
2018-05-18T12:18:37.438Z,6.68
2018-05-18T12:19:43.787Z,7.78
2018-05-18T12:20:50.081Z,7.80
2018-05-18T12:21:56.435Z,7.95
2018-05-18T12:23:02.693Z,7.80
2018-05-18T12:24:08.706Z,7.80
2018-05-18T12:25:15.010Z,7.57
2018-05-18T12:26:21.349Z,8.00
2018-05-18T12:27:30.748Z,8.27
2018-05-18T12:28:37.112Z,7.15
2018-05-18T12:29:43.364Z,7.90
2018-05-18T12:30:49.656Z,7.80
2018-05-18T12:31:56.205Z,7.50
2018-05-18T12:33:02.620Z,9.13
2018-05-18T12:34:08.885Z,8.05
2018-05-18T12:35:15.209Z,8.35
2018-05-18T12:36:22.205Z,8.10
2018-05-18T12:37:28.426Z,7.43
2018-05-18T12:38:34.649Z,8.50
2018-05-18T12:39:40.988Z,8.25
2018-05-18T12:40:47.244Z,8.27
2018-05-18T12:41:54.091Z,8.25
2018-05-18T12:43:01.416Z,8.38
2018-05-18T12:44:08.135Z,7.60
2018-05-18T12:45:14.562Z,8.38
2018-05-18T12:46:20.902Z,7.65
2018-05-18T12:47:27.314Z,8.38
2018-05-18T12:48:33.594Z,7.97
2018-05-18T12:49:39.917Z,7.97
2018-05-18T12:50:46.112Z,8.27
2018-05-18T12:51:52.449Z,7.68
2018-05-18T12:52:58.744Z,8.68
2018-05-18T12:54:04.848Z,8.68
2018-05-18T12:55:11.271Z,7.70
2018-05-18T12:56:17.576Z,7.93
2018-05-18T12:57:31.065Z,8.32
2018-05-18T12:58:38.309Z,8.93
2018-05-18T12:59:44.547Z,8.00
2018-05-18T13:00:50.814Z,9.35
2018-05-18T13:01:57.151Z,8.25
2018-05-18T13:03:03.560Z,8.43
2018-05-18T13:04:09.984Z,8.27
2018-05-18T13:05:16.357Z,8.45
2018-05-18T13:06:22.789Z,9.10
2018-05-18T13:07:29.124Z,9.30
2018-05-18T13:08:35.505Z,8.63
2018-05-18T13:09:41.941Z,7.35
2018-05-18T13:10:48.339Z,9.25
2018-05-18T13:11:54.775Z,8.57
2018-05-18T13:13:01.065Z,10.02
2018-05-18T13:14:08.011Z,7.87
2018-05-18T13:15:15.105Z,7.80
2018-05-18T13:16:21.454Z,8.65
2018-05-18T13:17:27.783Z,8.90
2018-05-18T13:18:42.507Z,8.43
2018-05-18T13:19:49.597Z,8.63
2018-05-18T13:20:55.900Z,8.82
2018-05-18T13:22:02.222Z,7.30
2018-05-18T13:23:08.609Z,7.90
2018-05-18T13:24:14.916Z,8.32
2018-05-18T13:25:21.238Z,8.75
2018-05-18T13:26:28.347Z,8.63
2018-05-18T13:27:34.845Z,7.72
2018-05-18T13:28:41.100Z,8.80
2018-05-18T13:29:48.358Z,8.88
2018-05-18T13:30:55.101Z,7.95
2018-05-18T13:32:02.517Z,8.43
2018-05-18T13:33:08.816Z,8.20
2018-05-18T13:34:15.135Z,9.52
2018-05-18T13:35:21.417Z,8.35
2018-05-18T13:36:27.738Z,8.75
2018-05-18T13:37:34.070Z,8.32
2018-05-18T13:38:40.463Z,7.68
2018-05-18T13:39:47.014Z,7.82
2018-05-18T13:40:53.299Z,8.10
2018-05-18T13:41:59.648Z,8.95
2018-05-18T13:43:06.441Z,8.48
2018-05-18T13:44:12.756Z,9.15
2018-05-18T13:45:19.564Z,8.55
2018-05-18T13:46:26.544Z,8.20
2018-05-18T13:47:32.840Z,8.13
2018-05-18T13:48:39.099Z,7.20
2018-05-18T13:49:45.416Z,7.45
2018-05-18T13:50:51.731Z,7.35
2018-05-18T13:51:58.040Z,8.80
2018-05-18T13:53:04.583Z,7.60
2018-05-18T13:54:10.877Z,8.13
2018-05-18T13:55:17.181Z,8.18
2018-05-18T13:56:23.497Z,8.05
2018-05-18T13:57:29.836Z,8.40
2018-05-18T13:58:36.149Z,8.27
2018-05-18T13:59:42.429Z,8.88
2018-05-18T14:00:48.775Z,8.52
2018-05-18T14:01:55.721Z,9.20
2018-05-18T14:03:02.006Z,8.48
2018-05-18T14:04:08.338Z,8.10
2018-05-18T14:05:14.704Z,8.45
2018-05-18T14:06:21.013Z,7.90
2018-05-18T14:07:27.354Z,8.93
2018-05-18T14:08:33.640Z,8.43
2018-05-18T14:09:39.964Z,8.18
2018-05-18T14:10:46.384Z,8.15
2018-05-18T14:11:52.778Z,7.90
2018-05-18T14:12:59.115Z,7.40
2018-05-18T14:14:05.102Z,8.57
2018-05-18T14:15:11.510Z,8.52
2018-05-18T14:16:17.869Z,8.27
2018-05-18T14:17:24.280Z,8.15
2018-05-18T14:18:30.678Z,8.18
2018-05-18T14:19:37.081Z,8.10
2018-05-18T14:20:43.496Z,7.78
2018-05-18T14:21:50.243Z,8.05
2018-05-18T14:22:56.660Z,8.10
2018-05-18T14:24:02.918Z,7.80
2018-05-18T14:25:09.236Z,7.45
2018-05-18T14:26:15.548Z,8.88
2018-05-18T14:27:22.081Z,8.02
2018-05-18T14:28:28.404Z,8.57
2018-05-18T14:29:34.698Z,8.23
2018-05-18T14:30:41.024Z,9.00
2018-05-18T14:31:47.355Z,7.65
2018-05-18T14:32:53.951Z,7.30
2018-05-18T14:34:00.452Z,8.38
2018-05-18T14:35:06.933Z,7.95
2018-05-18T14:36:13.295Z,9.00
2018-05-18T14:37:22.626Z,8.20
2018-05-18T14:38:31.154Z,7.95
2018-05-18T14:39:38.843Z,8.13
2018-05-18T14:40:45.496Z,7.00
2018-05-18T14:41:51.793Z,7.10
2018-05-18T14:42:58.126Z,6.95
2018-05-18T14:44:04.361Z,8.60
2018-05-18T14:45:10.616Z,7.90